Belize, Belize

5:49 AM CST on July 28, 2016 (GMT -0600)
Philip S W Goldson International | | Change Station

Elev 16 ft 17.54 °N, 88.31 °W | Updated 49 minutes ago

Partly Cloudy
Partly Cloudy
81 °F
Feels Like 88 °F
N
4
Wind Variable Wind from ESE

Today
High -- | Low -- °F
--% Chance of Precip.
Yesterday
High -- | Low -- °F
Precip. -- in
Pressure 29.91 in
Visibility 6.2 miles
Clouds Few 1800 ft
Heat Index 88 °F
Dew Point 79 °F
Humidity 94%
Rainfall 0.00 in
Snow Depth Not available.
5:31 AM 6:27 PM
Waning Crescent, 33% visible
METAR MZBZ 281100Z 11003KT 9999 FEW018 27/26 A2991 Q1013 NOSIG
Pressure 29.91 in
Visibility 6.2 miles
Clouds Few 1800 ft
Heat Index 88 °F
Dew Point 79 °F
Humidity 94%
Rainfall 0.00 in
Snow Depth Not available.
5:31 AM 6:27 PM
Waning Crescent, 33% visible
METAR MZBZ 281100Z 11003KT 9999 FEW018 27/26 A2991 Q1013 NOSIG

10-Day Weather Forecast

No radar image for this location.
×

Almanac

Astronomy

Jul. 28, 2016 Rise Set
Actual Time
Civil Twilight
Nautical Twilight
Astronomical Twilight
Moon
Length of Visible Light
Length of Day
Tomorrow will be .
, % of the Moon is Illuminated

Today's Extremes

Country Highs Country Lows

Community

WunderPhotos

Upload Photos

1,928,096 photos uploaded!

WunderBlog® & News

Nearby

Air Quality

  Air Quality AQ Index Pollutant
Not available.

Snow Depth

Station Depth Elevation

Earthquake Activity

City Distance Mag. Time & Date
Minimum magnitude displayed is 2.5.

Coastal Water Temperatures

Place Temperature

Stations

Nearby Weather Stations

Station Location Temp. Windchill Dew Point Humidity Wind Precip. Elev Updated Type